Terminal Aerodrome Forecast
Issued by NWS Sioux Falls, SD

Home | Current Version | Previous Version | Text Only | Print | Product List | Glossary Off
Versions: 1 2 3 4 5 6 7 8 9 10 11 12 13 14 15

557
FTUS43 KFSD 230533
TAFHON
TAF
KHON 230533Z 2306/2406 36013G19KT P6SM BKN012
     FM231100 02010KT P6SM OVC015
     FM231600 04011KT 5SM -SN OVC015
     FM231800 05012KT 2SM -SN OVC008
     FM240000 03019G28KT 1SM -SN BLSN OVC007=

USA.gov is the U.S. government's official web portal to all federal, state and local government web resources and services.